createdAt,value
2023-04-03T00:00:58.397Z,100572.38
2023-04-03T00:03:25.772Z,100593.22
2023-04-03T00:05:53.151Z,100605.03
2023-04-03T00:08:20.769Z,100616.34
2023-04-03T00:10:49.143Z,100627.50
2023-04-03T00:13:17.329Z,100638.59
2023-04-03T00:15:45.770Z,100647.72
2023-04-03T00:18:13.189Z,100648.22
2023-04-03T00:20:41.015Z,100650.47
2023-04-03T00:23:08.340Z,100651.81
2023-04-03T00:25:35.835Z,100661.44
2023-04-03T00:28:03.883Z,100662.00
2023-04-03T00:30:31.275Z,100675.50
2023-04-03T00:32:58.885Z,100666.66
2023-04-03T00:35:26.509Z,100656.13
2023-04-03T00:37:56.229Z,100644.78
2023-04-03T00:40:26.524Z,100630.81
2023-04-03T00:42:58.912Z,100618.59
2023-04-03T00:45:34.272Z,100612.47
2023-04-03T00:48:06.804Z,100606.09
2023-04-03T00:50:39.375Z,100602.59
2023-04-03T00:53:10.916Z,100609.34
2023-04-03T00:55:39.971Z,100595.06
2023-04-03T00:58:08.366Z,100602.53
2023-04-03T01:00:39.361Z,100617.19
2023-04-03T01:03:06.891Z,100625.72
2023-04-03T01:05:34.036Z,100629.41
2023-04-03T01:08:01.740Z,100626.53
2023-04-03T01:10:29.189Z,100614.78
2023-04-03T01:12:56.611Z,100637.41
2023-04-03T01:15:31.267Z,100630.66
2023-04-03T01:17:59.589Z,100653.25
2023-04-03T01:20:39.491Z,100665.22
2023-04-03T01:23:34.275Z,100642.75
2023-04-03T01:26:01.632Z,100636.91
2023-04-03T01:28:33.720Z,100650.91
2023-04-03T01:31:21.482Z,100640.00
2023-04-03T01:33:49.234Z,100639.94
2023-04-03T01:36:25.559Z,100632.50
2023-04-03T01:38:54.255Z,100634.97
2023-04-03T01:41:22.202Z,100640.25
2023-04-03T01:43:50.472Z,100631.97
2023-04-03T01:46:18.260Z,100635.47
2023-04-03T01:48:45.404Z,100647.47
2023-04-03T01:51:12.821Z,100659.44
2023-04-03T01:53:39.880Z,100665.34
2023-04-03T01:56:07.488Z,100683.88
2023-04-03T01:58:35.005Z,100682.50
2023-04-03T02:01:02.781Z,100695.56
2023-04-03T02:03:30.773Z,100696.16
2023-04-03T02:05:58.914Z,100697.50
2023-04-03T02:08:26.403Z,100721.28
2023-04-03T02:10:53.873Z,100728.81
2023-04-03T02:13:21.447Z,100739.13
2023-04-03T02:15:48.832Z,100755.44
2023-04-03T02:18:16.497Z,100767.44
2023-04-03T02:20:43.902Z,100779.97
2023-04-03T02:23:11.578Z,100792.09
2023-04-03T02:25:38.987Z,100792.63
2023-04-03T02:28:07.073Z,100805.28
2023-04-03T02:30:35.032Z,100819.88
2023-04-03T02:33:02.644Z,100816.34
2023-04-03T02:35:30.101Z,100831.50
2023-04-03T02:37:57.167Z,100842.91
2023-04-03T02:40:24.524Z,100850.63
2023-04-03T02:42:51.919Z,100862.13
2023-04-03T02:45:19.311Z,100865.13
2023-04-03T02:47:46.326Z,100875.47
2023-04-03T02:50:13.743Z,100886.22
2023-04-03T02:52:41.140Z,100887.22
2023-04-03T02:55:08.664Z,100892.50
2023-04-03T02:57:36.461Z,100906.44
2023-04-03T03:00:04.288Z,100909.03
2023-04-03T03:02:31.795Z,100909.34
2023-04-03T03:04:59.228Z,100915.63
2023-04-03T03:07:27.008Z,100917.34
2023-04-03T03:09:54.020Z,100916.03
2023-04-03T03:12:22.816Z,100923.94
2023-04-03T03:14:50.683Z,100928.66
2023-04-03T03:17:18.260Z,100927.59
2023-04-03T03:19:46.698Z,100933.53
2023-04-03T03:22:13.720Z,100938.75
2023-04-03T03:24:40.785Z,100936.81
2023-04-03T03:27:07.870Z,100935.25
2023-04-03T03:29:35.047Z,100938.84
2023-04-03T03:32:02.081Z,100937.38
2023-04-03T03:34:29.012Z,100939.41
2023-04-03T03:36:56.514Z,100940.06
2023-04-03T03:39:23.885Z,100935.75
2023-04-03T03:41:50.935Z,100938.28
2023-04-03T03:44:17.932Z,100931.91
2023-04-03T03:46:44.905Z,100932.72
2023-04-03T03:49:12.557Z,100932.25
2023-04-03T03:51:41.178Z,100926.69
2023-04-03T03:54:09.005Z,100929.97
2023-04-03T03:56:36.563Z,100924.50
2023-04-03T03:59:03.685Z,100931.69
2023-04-03T04:01:31.031Z,100932.06
2023-04-03T04:03:58.728Z,100932.16
2023-04-03T04:06:26.161Z,100932.81
2023-04-03T04:08:53.622Z,100937.38
2023-04-03T04:13:51.449Z,100942.09
2023-04-03T04:16:18.936Z,100936.97
2023-04-03T04:18:46.423Z,100940.09
2023-04-03T04:21:13.768Z,100948.72
2023-04-03T04:23:41.140Z,100946.53
2023-04-03T04:26:08.502Z,100959.47
2023-04-03T04:28:35.922Z,100969.25
2023-04-03T04:31:04.041Z,100957.84
2023-04-03T04:33:31.690Z,100968.25
2023-04-03T04:35:59.090Z,100963.63
2023-04-03T04:38:26.133Z,100965.97
2023-04-03T04:40:53.501Z,100977.28
2023-04-03T04:43:20.891Z,100977.91
2023-04-03T04:45:48.334Z,100985.25
2023-04-03T04:48:15.572Z,100972.16
2023-04-03T04:50:42.902Z,100983.56
2023-04-03T04:53:10.287Z,100993.25
2023-04-03T04:55:37.909Z,100985.25
2023-04-03T04:58:05.645Z,100986.88
2023-04-03T05:00:32.640Z,100993.25
2023-04-03T05:02:59.979Z,100997.66
2023-04-03T05:05:27.350Z,100995.03
2023-04-03T05:07:54.639Z,100999.53
2023-04-03T05:10:21.995Z,101004.19
2023-04-03T05:12:49.346Z,101003.81
2023-04-03T05:15:16.425Z,101002.91
2023-04-03T05:17:43.371Z,101013.25
2023-04-03T05:20:11.206Z,101018.41
2023-04-03T05:22:38.443Z,101014.19
2023-04-03T05:25:06.803Z,101020.53
2023-04-03T05:27:34.058Z,101014.69
2023-04-03T05:30:01.394Z,101020.06
2023-04-03T05:32:28.684Z,101027.97
2023-04-03T05:34:55.888Z,101021.19
2023-04-03T05:37:22.814Z,101031.22
2023-04-03T05:39:50.110Z,101032.13
2023-04-03T05:42:17.874Z,101037.50
2023-04-03T05:44:45.641Z,101045.50
2023-04-03T05:47:12.578Z,101048.09
2023-04-03T05:49:41.959Z,101053.56
2023-04-03T05:52:34.840Z,101074.91
2023-04-03T05:55:02.489Z,101079.56
2023-04-03T05:57:29.840Z,101080.53
2023-04-03T05:59:57.236Z,101083.47
2023-04-03T06:02:26.165Z,101081.94
2023-04-03T06:04:53.775Z,101089.84
2023-04-03T06:07:28.109Z,101103.22
2023-04-03T06:09:56.951Z,101103.38
2023-04-03T06:12:24.454Z,101106.38
2023-04-03T06:14:52.066Z,101126.03
2023-04-03T06:17:19.552Z,101127.19
2023-04-03T06:19:47.040Z,101128.47
2023-04-03T06:22:14.570Z,101132.56
2023-04-03T06:24:41.920Z,101130.44
2023-04-03T06:27:10.621Z,101135.06
2023-04-03T06:29:38.208Z,101147.53
2023-04-03T06:32:05.616Z,101150.47
2023-04-03T06:34:33.205Z,101165.06
2023-04-03T06:37:00.176Z,101168.06
2023-04-03T06:39:27.159Z,101164.63
2023-04-03T06:41:54.514Z,101174.66
2023-04-03T06:44:21.838Z,101175.84
2023-04-03T06:46:49.658Z,101172.50
2023-04-03T06:49:16.673Z,101167.72
2023-04-03T06:51:44.022Z,101163.47
2023-04-03T06:54:11.512Z,101159.06
2023-04-03T06:56:38.884Z,101166.06
2023-04-03T06:59:06.220Z,101162.63
2023-04-03T07:01:33.591Z,101166.38
2023-04-03T07:04:01.288Z,101169.06
2023-04-03T07:06:28.950Z,101184.59
2023-04-03T07:08:56.548Z,101194.84
2023-04-03T07:11:23.853Z,101199.47
2023-04-03T07:13:51.524Z,101204.72
2023-04-03T07:16:18.503Z,101204.66
2023-04-03T07:18:46.686Z,101196.25
2023-04-03T07:21:14.320Z,101199.38
2023-04-03T07:23:41.449Z,101195.81
2023-04-03T07:26:09.154Z,101192.91
2023-04-03T07:28:37.739Z,101191.34
2023-04-03T07:31:09.824Z,101190.13
2023-04-03T07:33:38.268Z,101194.31
2023-04-03T07:36:08.011Z,101192.94
2023-04-03T07:38:36.580Z,101183.50
2023-04-03T07:41:05.145Z,101181.34
2023-04-03T07:43:32.512Z,101176.94
2023-04-03T07:45:59.948Z,101177.06
2023-04-03T07:48:27.777Z,101167.63
2023-04-03T07:50:54.881Z,101177.81
2023-04-03T07:53:22.449Z,101161.25
2023-04-03T07:55:50.226Z,101163.44
2023-04-03T07:58:19.380Z,101168.09
2023-04-03T08:00:47.012Z,101168.38
2023-04-03T08:03:14.832Z,101170.63
2023-04-03T08:05:44.441Z,101165.75
2023-04-03T08:08:13.738Z,101185.72
2023-04-03T08:10:41.274Z,101145.81
2023-04-03T08:13:09.005Z,101113.09
2023-04-03T08:15:37.000Z,101073.78
2023-04-03T08:18:04.748Z,101011.94
2023-04-03T08:20:31.885Z,101007.25
2023-04-03T08:22:58.955Z,100988.28
2023-04-03T08:25:26.591Z,100971.34
2023-04-03T08:27:53.969Z,100900.78
2023-04-03T08:30:21.415Z,100884.66
2023-04-03T08:32:48.540Z,100871.94
2023-04-03T08:35:15.602Z,100826.38
2023-04-03T08:37:42.821Z,100840.28
2023-04-03T08:40:17.048Z,100777.28
2023-04-03T08:43:11.612Z,100771.06
2023-04-03T08:45:56.563Z,100722.22
2023-04-03T08:48:36.707Z,100745.75
2023-04-03T08:51:18.679Z,100696.97
2023-04-03T08:54:01.270Z,100680.63
2023-04-03T08:56:28.858Z,100574.09
2023-04-03T08:59:05.459Z,100556.94
2023-04-03T09:01:39.236Z,100516.59
2023-04-03T09:04:16.094Z,100497.72
2023-04-03T09:06:59.857Z,100395.84
2023-04-03T09:09:42.994Z,100421.53
2023-04-03T09:12:40.712Z,100394.63
2023-04-03T09:15:31.261Z,100378.47
2023-04-03T09:18:24.103Z,100356.72
2023-04-03T09:21:09.211Z,100324.00
2023-04-03T09:23:51.595Z,100277.69
2023-04-03T09:26:30.932Z,100182.13
2023-04-03T09:29:07.726Z,100212.50
2023-04-03T09:31:42.326Z,100195.44
2023-04-03T09:34:27.433Z,100292.59
2023-04-03T09:37:06.728Z,100206.38
2023-04-03T09:39:52.306Z,100231.34
2023-04-03T09:42:25.835Z,100166.28
2023-04-03T09:45:02.082Z,100083.19
2023-04-03T09:47:37.417Z,100018.63
2023-04-03T09:50:24.320Z,100163.53
2023-04-03T09:52:53.058Z,100267.25
2023-04-03T09:55:28.266Z,100201.94
2023-04-03T09:58:03.884Z,99960.03
2023-04-03T10:00:40.252Z,100087.75
2023-04-03T10:03:40.284Z,100202.84
2023-04-03T10:06:25.036Z,100139.19
2023-04-03T10:09:05.450Z,100052.63
2023-04-03T10:11:32.971Z,100163.31
2023-04-03T10:14:02.603Z,100068.84
2023-04-03T10:16:51.169Z,99998.22
2023-04-03T10:19:46.165Z,100014.19
2023-04-03T10:22:43.524Z,100198.22
2023-04-03T10:25:24.451Z,99965.44
2023-04-03T10:28:04.455Z,99901.81
2023-04-03T10:31:02.157Z,100016.25
2023-04-03T10:34:09.368Z,99929.34
2023-04-03T10:36:44.763Z,100019.41
2023-04-03T10:39:59.075Z,100016.78
2023-04-03T10:42:37.762Z,99964.78
2023-04-03T10:45:31.350Z,100042.50
2023-04-03T10:48:16.614Z,99847.75
2023-04-03T10:50:53.844Z,99851.25
2023-04-03T10:54:10.225Z,99862.78
2023-04-03T10:56:53.105Z,99820.69
2023-04-03T10:59:49.515Z,99967.06
2023-04-03T11:02:43.379Z,99824.28
2023-04-03T11:05:32.055Z,99886.91
2023-04-03T11:08:06.244Z,99942.38
2023-04-03T11:10:46.386Z,100058.09
2023-04-03T11:13:34.030Z,100057.25
2023-04-03T11:16:01.461Z,99865.03
2023-04-03T11:18:54.542Z,99803.34
2023-04-03T11:21:57.236Z,99682.72
2023-04-03T11:24:28.907Z,99717.91
2023-04-03T11:26:57.743Z,99863.31
2023-04-03T11:29:35.422Z,99943.53
2023-04-03T11:32:12.033Z,99799.88
2023-04-03T11:34:44.491Z,99717.94
2023-04-03T11:37:23.752Z,99587.66
2023-04-03T11:40:27.964Z,99907.34
2023-04-03T11:43:00.756Z,100007.81
2023-04-03T11:45:46.675Z,99795.97
2023-04-03T11:48:24.813Z,99636.75
2023-04-03T11:50:53.310Z,99561.13
2023-04-03T11:53:40.341Z,99498.66
2023-04-03T11:56:31.791Z,99559.41
2023-04-03T11:59:14.712Z,99503.09
2023-04-03T12:01:51.963Z,99447.66
2023-04-03T12:04:23.229Z,99549.69
2023-04-03T12:06:54.164Z,99495.22
2023-04-03T12:09:31.951Z,99596.41
2023-04-03T12:12:08.705Z,99489.88
2023-04-03T12:14:36.760Z,99534.63
2023-04-03T12:17:24.830Z,99333.25
2023-04-03T12:19:53.045Z,99278.94
2023-04-03T12:22:22.184Z,99374.75
2023-04-03T12:24:54.125Z,99597.09
2023-04-03T12:27:26.286Z,99541.69
2023-04-03T12:30:06.944Z,99652.44
2023-04-03T12:33:12.565Z,99639.03
2023-04-03T12:36:12.394Z,99403.16
2023-04-03T12:39:14.368Z,99302.31
2023-04-03T12:42:02.063Z,99394.72
2023-04-03T12:44:32.419Z,99276.94
2023-04-03T12:47:17.820Z,99352.31
2023-04-03T12:49:46.168Z,99308.34
2023-04-03T12:52:43.079Z,99522.44
2023-04-03T12:55:18.871Z,99529.13
2023-04-03T12:57:46.745Z,99248.78
2023-04-03T13:00:34.400Z,99193.47
2023-04-03T13:03:05.142Z,99251.66
2023-04-03T13:05:35.927Z,99396.31
2023-04-03T13:08:11.457Z,99222.22
2023-04-03T13:10:57.402Z,99194.03
2023-04-03T13:13:24.747Z,99445.75
2023-04-03T13:15:53.771Z,99222.69
2023-04-03T13:18:34.588Z,99095.53
2023-04-03T13:21:13.500Z,99136.22
2023-04-03T13:23:46.331Z,99202.19
2023-04-03T13:26:17.335Z,99088.97
2023-04-03T13:28:46.487Z,99074.09
2023-04-03T13:31:15.039Z,99132.16
2023-04-03T13:34:14.591Z,99049.66
2023-04-03T13:37:06.146Z,99160.25
2023-04-03T13:39:39.375Z,99385.25
2023-04-03T13:42:30.928Z,99007.59
2023-04-03T13:45:27.286Z,99085.94
2023-04-03T13:48:23.243Z,99080.66
2023-04-03T13:51:06.084Z,99021.16
2023-04-03T13:53:35.782Z,99021.16
2023-04-03T13:56:11.667Z,99006.47
2023-04-03T13:58:39.982Z,98942.56
2023-04-03T14:01:24.220Z,99119.97
2023-04-03T14:03:59.725Z,99024.91
2023-04-03T14:06:27.186Z,99032.03
2023-04-03T14:08:54.382Z,98946.19
2023-04-03T14:11:31.385Z,99025.25
2023-04-03T14:14:06.443Z,99012.81
2023-04-03T14:16:39.189Z,98912.16
2023-04-03T14:19:07.326Z,98930.41
2023-04-03T14:21:34.819Z,99178.94
2023-04-03T14:24:02.568Z,98960.97
2023-04-03T14:26:31.426Z,99012.84
2023-04-03T14:28:59.665Z,99015.88
2023-04-03T14:32:32.146Z,99025.31
2023-04-03T14:34:59.785Z,99176.44
2023-04-03T14:37:31.713Z,99124.03
2023-04-03T14:40:01.388Z,98999.06
2023-04-03T14:42:37.850Z,98943.53
2023-04-03T14:45:09.399Z,99028.25
2023-04-03T14:47:43.958Z,99063.44
2023-04-03T14:50:22.134Z,98749.50
2023-04-03T14:52:52.406Z,98743.13
2023-04-03T14:55:23.388Z,98683.31
2023-04-03T14:59:06.256Z,98720.06
2023-04-03T15:01:33.818Z,98905.00
2023-04-03T15:04:01.238Z,98767.78
2023-04-03T15:06:28.852Z,98719.94
2023-04-03T15:09:20.004Z,98743.13
2023-04-03T15:12:00.609Z,98836.09
2023-04-03T15:14:36.280Z,98670.56
2023-04-03T15:17:07.224Z,98896.50
2023-04-03T15:19:38.875Z,98673.06
2023-04-03T15:22:06.452Z,98712.25
2023-04-03T15:24:34.002Z,98379.22
2023-04-03T15:27:02.188Z,98438.75
2023-04-03T15:29:29.608Z,98428.16
2023-04-03T15:31:57.573Z,98687.19
2023-04-03T15:34:25.105Z,98567.31
2023-04-03T15:36:53.799Z,98672.63
2023-04-03T15:39:21.935Z,98583.63
2023-04-03T15:41:49.569Z,98500.28
2023-04-03T15:44:20.127Z,98410.03
2023-04-03T15:46:49.792Z,98393.50
2023-04-03T15:49:21.233Z,98524.78
2023-04-03T15:51:48.685Z,98641.00
2023-04-03T15:54:16.504Z,98460.06
2023-04-03T15:56:43.900Z,98449.66
2023-04-03T15:59:11.996Z,98193.41
2023-04-03T16:01:40.126Z,98343.19
2023-04-03T16:04:09.914Z,98579.97
2023-04-03T16:06:38.117Z,98538.56
2023-04-03T16:09:06.069Z,98370.34
2023-04-03T16:11:33.450Z,98349.13
2023-04-03T16:14:00.993Z,98329.66
2023-04-03T16:16:28.446Z,98306.19
2023-04-03T16:18:56.969Z,98304.94
2023-04-03T16:21:24.506Z,98164.03
2023-04-03T16:23:51.949Z,98209.94
2023-04-03T16:26:19.339Z,98091.81
2023-04-03T16:28:46.674Z,98120.81
2023-04-03T16:31:14.219Z,98049.44
2023-04-03T16:33:41.639Z,98063.09
2023-04-03T16:36:09.090Z,98048.38
2023-04-03T16:38:37.144Z,97969.00
2023-04-03T16:41:05.683Z,98103.56
2023-04-03T16:43:34.299Z,98139.94
2023-04-03T16:46:03.305Z,98087.91
2023-04-03T16:48:31.927Z,98003.53
2023-04-03T16:51:00.429Z,98026.59
2023-04-03T16:53:28.401Z,98074.03
2023-04-03T16:55:57.905Z,98101.88
2023-04-03T16:58:25.526Z,98071.38
2023-04-03T17:00:54.860Z,98103.69
2023-04-03T17:03:24.610Z,97985.69
2023-04-03T17:05:52.229Z,97996.44
2023-04-03T17:08:20.977Z,97905.63
2023-04-03T17:10:50.201Z,98002.94
2023-04-03T17:13:18.396Z,97939.97
2023-04-03T17:15:46.130Z,97921.28
2023-04-03T17:18:13.760Z,97814.16
2023-04-03T17:20:41.268Z,97837.16
2023-04-03T17:23:08.668Z,97853.13
2023-04-03T17:25:36.631Z,97808.03
2023-04-03T17:28:04.116Z,97783.19
2023-04-03T17:30:31.608Z,97834.16
2023-04-03T17:32:59.120Z,97787.81
2023-04-03T17:35:26.550Z,97827.28
2023-04-03T17:37:54.094Z,97829.53
2023-04-03T17:40:21.416Z,97794.06
2023-04-03T17:42:48.878Z,97817.31
2023-04-03T17:45:16.356Z,97828.44
2023-04-03T17:47:43.644Z,97851.28
2023-04-03T17:50:11.612Z,97862.75
2023-04-03T17:52:39.389Z,97869.31
2023-04-03T17:55:07.022Z,97878.25
2023-04-03T17:57:34.544Z,97851.06
2023-04-03T18:00:02.050Z,97813.69
2023-04-03T18:02:30.214Z,97806.16
2023-04-03T18:04:57.654Z,97821.09
2023-04-03T18:07:25.299Z,97863.25
2023-04-03T18:09:53.680Z,97837.28
2023-04-03T18:12:21.467Z,97848.00
2023-04-03T18:14:49.684Z,97877.84
2023-04-03T18:17:17.187Z,97895.38
2023-04-03T18:19:45.676Z,97935.63
2023-04-03T18:22:17.526Z,97968.97
2023-04-03T18:24:45.119Z,97963.94
2023-04-03T18:27:15.569Z,98003.31
2023-04-03T18:29:46.922Z,98027.91
2023-04-03T18:32:16.899Z,98029.03
2023-04-03T18:34:44.284Z,98055.38
2023-04-03T18:37:11.789Z,98049.31
2023-04-03T18:39:39.474Z,98071.19
2023-04-03T18:42:15.173Z,98086.97
2023-04-03T18:44:45.165Z,98113.19
2023-04-03T18:47:13.129Z,98148.19
2023-04-03T18:49:42.093Z,98126.50
2023-04-03T18:52:11.403Z,98141.41
2023-04-03T18:54:39.345Z,98166.88
2023-04-03T18:57:08.060Z,98213.19
2023-04-03T18:59:36.865Z,98258.66
2023-04-03T19:02:20.944Z,98285.75
2023-04-03T19:04:48.905Z,98291.03
2023-04-03T19:07:16.372Z,98292.84
2023-04-03T19:09:43.828Z,98310.34
2023-04-03T19:14:40.845Z,98367.13
2023-04-03T19:17:09.232Z,98364.50
2023-04-03T19:19:36.632Z,98414.28
2023-04-03T19:22:04.184Z,98438.75
2023-04-03T19:24:31.689Z,98425.66
2023-04-03T19:26:59.143Z,98446.59
2023-04-03T19:29:26.570Z,98446.59
2023-04-03T19:31:54.168Z,98447.47
2023-04-03T19:34:21.774Z,98478.88
2023-04-03T19:36:52.239Z,98549.56
2023-04-03T19:39:19.682Z,98580.09
2023-04-03T19:41:47.425Z,98593.16
2023-04-03T19:44:14.777Z,98620.22
2023-04-03T19:46:51.372Z,98635.91
2023-04-03T19:49:19.772Z,98650.72
2023-04-03T19:51:47.119Z,98686.44
2023-04-03T19:54:14.543Z,98716.88
2023-04-03T19:56:41.958Z,98734.22
2023-04-03T19:59:11.990Z,98760.34
2023-04-03T20:01:39.639Z,98782.97
2023-04-03T20:04:08.212Z,98782.13
2023-04-03T20:06:36.821Z,98757.88
2023-04-03T20:09:04.440Z,98757.09
2023-04-03T20:11:33.533Z,98730.88
2023-04-03T20:14:01.337Z,98710.00
2023-04-03T20:16:29.538Z,98709.13
2023-04-03T20:18:57.530Z,98698.66
2023-04-03T20:21:34.045Z,98702.97
2023-04-03T20:24:03.994Z,98723.03
2023-04-03T20:26:32.451Z,98722.97
2023-04-03T20:29:03.415Z,98740.44
2023-04-03T20:31:31.897Z,98718.69
2023-04-03T20:33:59.365Z,98703.75
2023-04-03T20:36:28.517Z,98717.66
2023-04-03T20:38:56.234Z,98727.22
2023-04-03T20:41:23.868Z,98716.75
2023-04-03T20:43:51.697Z,98710.66
2023-04-03T20:46:19.820Z,98725.41
2023-04-03T20:48:48.151Z,98734.00
2023-04-03T20:51:19.742Z,98752.31
2023-04-03T20:53:48.243Z,98767.88
2023-04-03T20:56:16.182Z,98785.25
2023-04-03T20:58:43.920Z,98812.13
2023-04-03T21:01:25.008Z,98827.69
2023-04-03T21:04:00.999Z,98876.63
2023-04-03T21:07:24.570Z,98873.91
2023-04-03T21:10:47.614Z,98871.22
2023-04-03T21:14:13.717Z,98898.13
2023-04-03T21:16:41.046Z,98906.69
2023-04-03T21:19:15.998Z,98917.03
2023-04-03T21:21:46.100Z,98937.88
2023-04-03T21:24:16.952Z,98949.38
2023-04-03T21:26:44.723Z,98944.94
2023-04-03T21:29:12.211Z,98937.97
2023-04-03T21:31:48.088Z,98943.97
2023-04-03T21:34:15.991Z,98948.22
2023-04-03T21:36:44.694Z,98960.41
2023-04-03T21:39:12.322Z,98975.22
2023-04-03T21:41:39.712Z,98969.03
2023-04-03T21:44:07.143Z,98989.09
2023-04-03T21:46:34.615Z,98975.88
2023-04-03T21:49:01.944Z,98979.38
2023-04-03T21:51:29.010Z,98988.19
2023-04-03T21:53:56.559Z,98988.00
2023-04-03T21:56:26.967Z,99031.59
2023-04-03T21:58:54.498Z,99029.28
2023-04-03T22:01:22.481Z,99073.44
2023-04-03T22:03:49.874Z,99114.31
2023-04-03T22:06:17.586Z,99128.94
2023-04-03T22:08:45.478Z,99147.19
2023-04-03T22:11:16.587Z,99162.06
2023-04-03T22:13:44.522Z,99183.75
2023-04-03T22:16:12.931Z,99191.28
2023-04-03T22:18:40.364Z,99218.97
2023-04-03T22:21:08.680Z,99223.16
2023-04-03T22:23:36.505Z,99245.00
2023-04-03T22:26:11.898Z,99242.84
2023-04-03T22:28:42.670Z,99259.09
2023-04-03T22:31:14.312Z,99294.19
2023-04-03T22:33:43.339Z,99302.41
2023-04-03T22:36:12.286Z,99285.69
2023-04-03T22:38:43.485Z,99288.06
2023-04-03T22:41:11.866Z,99296.72
2023-04-03T22:43:39.985Z,99314.81
2023-04-03T22:46:09.158Z,99315.81
2023-04-03T22:48:37.351Z,99315.84
2023-04-03T22:51:08.717Z,99390.13
2023-04-03T22:53:36.573Z,99463.25
2023-04-03T22:56:11.089Z,99487.94
2023-04-03T22:58:39.090Z,99515.25
2023-04-03T23:01:10.641Z,99544.47
2023-04-03T23:03:39.415Z,99570.41
2023-04-03T23:06:07.379Z,99584.03
2023-04-03T23:08:38.055Z,99599.72
2023-04-03T23:11:07.282Z,99608.03
2023-04-03T23:13:35.119Z,99635.38
2023-04-03T23:16:03.419Z,99643.16
2023-04-03T23:18:32.799Z,99644.97
2023-04-03T23:21:01.411Z,99660.91
2023-04-03T23:23:28.974Z,99686.66
2023-04-03T23:26:01.783Z,99679.34
2023-04-03T23:28:30.053Z,99692.31
2023-04-03T23:31:07.283Z,99694.66
2023-04-03T23:33:34.611Z,99731.16
2023-04-03T23:36:08.088Z,99723.06
2023-04-03T23:38:36.096Z,99757.59
2023-04-03T23:41:03.451Z,99763.50
2023-04-03T23:43:32.106Z,99764.13
2023-04-03T23:45:59.699Z,99772.38
2023-04-03T23:48:27.087Z,99771.28
2023-04-03T23:50:54.438Z,99770.88
2023-04-03T23:53:21.847Z,99788.91
2023-04-03T23:55:49.223Z,99771.00
2023-04-03T23:58:16.588Z,99771.34
